Time;durP1;ratioP1;P1;durP2;ratioP2;P2;SDS_P1;SDS_P2;PMS_P1;PMS_P2;Temp;Humidity;BMP_temperature;BMP_pressure;BME280_temperature;BME280_humidity;BME280_pressure;Samples;Min_cycle;Max_cycle;Signal;HPM_P1;HPM_P2
2023/03/24 00:00:12;;;;;;;6.35;4.28;;;;;;;9.61;100.00;99663.25;6271996;22;20437;-86
2023/03/24 00:02:40;;;;;;;5.35;4.57;;;;;;;9.71;100.00;99677.63;6271686;22;20043;-86
2023/03/24 00:05:11;;;;;;;6.40;4.60;;;;;;;9.83;100.00;99685.78;6269358;22;20008;-87
2023/03/24 00:07:37;;;;;;;5.93;4.50;;;;;;;9.97;100.00;99706.94;6242468;22;20013;-86
2023/03/24 00:10:07;;;;;;;5.63;4.57;;;;;;;9.85;100.00;99678.53;6243271;22;20000;-87
2023/03/24 00:12:33;;;;;;;6.93;5.30;;;;;;;9.78;100.00;99658.63;6270507;22;19999;-86
2023/03/24 00:15:01;;;;;;;6.45;4.65;;;;;;;9.98;100.00;99680.25;6270446;22;20011;-87
2023/03/24 00:17:28;;;;;;;5.13;4.28;;;;;;;9.92;100.00;99678.03;6268091;22;20031;-86
2023/03/24 00:19:54;;;;;;;5.10;4.57;;;;;;;9.62;100.00;99633.09;6269384;22;20002;-87
2023/03/24 00:22:20;;;;;;;5.90;4.70;;;;;;;9.96;100.00;99682.19;6269779;22;20153;-86
2023/03/24 00:24:46;;;;;;;4.97;4.30;;;;;;;9.87;100.00;99663.34;6269579;22;20028;-86
2023/03/24 00:27:12;;;;;;;6.07;4.18;;;;;;;9.81;100.00;99645.97;6241578;22;20031;-86
2023/03/24 00:29:39;;;;;;;7.07;4.47;;;;;;;9.79;100.00;99623.16;6276415;22;20053;-87
2023/03/24 00:32:05;;;;;;;5.97;4.72;;;;;;;9.73;100.00;99622.56;6289621;22;20014;-87
2023/03/24 00:34:30;;;;;;;5.28;4.47;;;;;;;9.90;100.00;99642.72;6269404;22;19995;-87
2023/03/24 00:36:56;;;;;;;4.90;4.28;;;;;;;9.81;100.00;99626.53;6295999;22;20403;-87
2023/03/24 00:39:21;;;;;;;4.60;3.95;;;;;;;9.87;100.00;99629.66;6295316;22;19987;-86
2023/03/24 00:41:47;;;;;;;5.22;4.00;;;;;;;9.94;100.00;99641.53;6290467;22;20016;-85
2023/03/24 00:44:19;;;;;;;6.75;3.90;;;;;;;9.96;100.00;99623.72;6277626;22;20000;-85
2023/03/24 00:46:54;;;;;;;4.55;3.75;;;;;;;10.04;100.00;99627.66;6276925;22;20439;-86
2023/03/24 00:49:40;;;;;;;4.85;3.70;;;;;;;10.14;100.00;99636.69;6279002;22;20063;-85
2023/03/24 00:52:20;;;;;;;4.68;3.60;;;;;;;10.31;100.00;99652.38;6295287;22;19999;-87
2023/03/24 00:54:47;;;;;;;5.15;3.90;;;;;;;10.32;100.00;99648.75;6299759;22;20047;-86
2023/03/24 00:57:20;;;;;;;5.80;3.95;;;;;;;10.26;100.00;99638.56;6300452;22;19995;-84
2023/03/24 00:59:47;;;;;;;4.68;3.78;;;;;;;10.16;100.00;99619.69;6289779;22;20004;-87
2023/03/24 01:02:17;;;;;;;5.95;3.80;;;;;;;10.08;100.00;99605.22;6274094;22;20057;-87
2023/03/24 01:04:46;;;;;;;5.22;3.65;;;;;;;10.08;100.00;99605.22;6273893;22;20004;-87
2023/03/24 01:07:12;;;;;;;5.30;3.92;;;;;;;9.95;100.00;99574.16;6273746;22;20049;-87
2023/03/24 01:09:37;;;;;;;3.70;3.40;;;;;;;10.22;100.00;99629.03;6274036;22;20010;-86
2023/03/24 01:12:03;;;;;;;4.35;3.90;;;;;;;10.24;100.00;99616.47;6274666;22;20028;-87
2023/03/24 01:14:30;;;;;;;3.45;3.10;;;;;;;10.31;100.00;99630.25;6274391;22;20433;-88
2023/03/24 01:16:56;;;;;;;4.50;3.70;;;;;;;10.17;100.00;99604.59;6273337;22;20030;-86
2023/03/24 01:19:21;;;;;;;4.90;3.70;;;;;;;10.34;100.00;99627.38;6272409;22;20509;-86
2023/03/24 01:21:49;;;;;;;4.05;3.58;;;;;;;10.33;100.00;99629.19;6272667;22;20325;-85
2023/03/24 01:24:15;;;;;;;4.50;4.05;;;;;;;10.34;100.00;99627.38;6273363;22;20012;-89
2023/03/24 01:26:41;;;;;;;4.43;3.90;;;;;;;9.95;100.00;99547.59;6272876;22;20010;-87
2023/03/24 01:29:06;;;;;;;6.53;5.00;;;;;;;10.22;100.00;99602.47;6272891;22;20003;-87
2023/03/24 01:31:32;;;;;;;5.70;4.32;;;;;;;10.31;100.00;99601.84;6271060;22;20497;-87
2023/03/24 01:33:57;;;;;;;4.90;3.92;;;;;;;10.06;100.00;99569.91;6272491;22;20393;-88
2023/03/24 01:36:23;;;;;;;4.88;4.20;;;;;;;9.86;100.00;99531.41;6270144;22;20071;-86
2023/03/24 01:38:48;;;;;;;7.72;4.65;;;;;;;10.13;100.00;99573.84;6272008;22;20087;-87
2023/03/24 01:41:13;;;;;;;5.47;4.25;;;;;;;9.87;100.00;99527.81;6238639;23;20008;-86
2023/03/24 01:43:39;;;;;;;6.40;4.82;;;;;;;10.25;100.00;99590.81;6240012;22;20004;-88
2023/03/24 01:46:07;;;;;;;7.30;4.75;;;;;;;10.25;100.00;99591.66;6238740;23;20012;-85
2023/03/24 01:48:33;;;;;;;6.10;4.78;;;;;;;10.25;100.00;99590.81;6239207;23;20479;-86
2023/03/24 01:50:58;;;;;;;4.70;4.07;;;;;;;10.27;100.00;99594.19;6240387;22;20000;-85
2023/03/24 01:53:26;;;;;;;6.57;4.53;;;;;;;9.85;100.00;99519.91;6237870;23;20089;-86
2023/03/24 01:55:53;;;;;;;5.55;4.55;;;;;;;9.91;100.00;99527.50;6240559;22;20016;-86
2023/03/24 01:58:18;;;;;;;5.95;4.57;;;;;;;10.28;100.00;99585.25;6238856;22;20000;-86
2023/03/24 02:00:44;;;;;;;6.53;4.75;;;;;;;10.04;100.00;99545.25;6239518;22;20018;-87
2023/03/24 02:03:17;;;;;;;5.68;4.50;;;;;;;10.25;100.00;99580.16;6239355;23;20004;-86
2023/03/24 02:05:45;;;;;;;6.57;4.45;;;;;;;10.04;100.00;99526.63;6238967;22;20422;-86
2023/03/24 02:08:23;;;;;;;5.47;4.78;;;;;;;10.09;100.00;99536.00;6238570;22;20028;-85
2023/03/24 02:10:51;;;;;;;5.85;4.47;;;;;;;10.13;100.00;99540.13;6241916;22;20004;-86
2023/03/24 02:13:16;;;;;;;6.20;4.70;;;;;;;9.93;100.00;99509.63;6240923;22;20087;-85
2023/03/24 02:16:01;;;;;;;6.65;5.05;;;;;;;10.02;100.00;99526.72;6239746;23;20121;-85
2023/03/24 02:18:47;;;;;;;5.55;4.47;;;;;;;9.98;100.00;99501.31;6239576;22;20004;-85
2023/03/24 02:21:18;;;;;;;5.60;4.55;;;;;;;10.30;100.00;99538.13;6239624;22;20004;-86
2023/03/24 02:24:06;;;;;;;7.07;5.05;;;;;;;10.11;100.00;99496.84;6239665;23;20101;-87
2023/03/24 02:26:41;;;;;;;6.10;5.38;;;;;;;10.27;100.00;99541.00;6237681;22;20012;-85
2023/03/24 02:29:21;;;;;;;6.57;5.18;;;;;;;10.17;100.00;99543.44;6239492;23;20423;-86
2023/03/24 02:32:04;;;;;;;6.38;5.55;;;;;;;10.05;100.00;99536.31;6238707;22;20000;-85
2023/03/24 02:34:45;;;;;;;7.90;5.90;;;;;;;10.35;100.00;99565.25;6239512;22;20100;-86
2023/03/24 02:37:20;;;;;;;6.35;5.38;;;;;;;10.11;100.00;99531.41;6238743;23;20560;-86
2023/03/24 02:39:48;;;;;;;8.35;6.20;;;;;;;10.36;100.00;99558.97;6237925;23;20034;-86
2023/03/24 02:42:42;;;;;;;6.28;5.68;;;;;;;10.33;100.00;99554.72;6257806;22;20020;-86
2023/03/24 02:45:19;;;;;;;7.57;6.20;;;;;;;10.20;100.00;99551.22;6269625;22;20007;-86
2023/03/24 02:48:12;;;;;;;7.90;6.22;;;;;;;10.32;100.00;99578.75;6268456;22;20100;-85
2023/03/24 02:50:51;;;;;;;7.00;6.30;;;;;;;10.11;100.00;99550.00;6269814;22;20008;-84
2023/03/24 02:53:49;;;;;;;7.95;6.10;;;;;;;10.04;100.00;99542.59;6269349;22;20000;-85
2023/03/24 02:56:24;;;;;;;8.13;6.53;;;;;;;10.31;100.00;99583.22;6260163;22;20441;-85
2023/03/24 02:59:04;;;;;;;8.65;6.60;;;;;;;10.06;100.00;99554.81;6270064;22;20059;-85
2023/03/24 03:01:42;;;;;;;8.02;6.10;;;;;;;10.07;100.00;99555.66;6270864;22;20011;-85
2023/03/24 03:04:13;;;;;;;8.93;6.80;;;;;;;9.87;100.00;99522.50;6271088;22;20004;-85
2023/03/24 03:06:42;;;;;;;7.95;7.15;;;;;;;9.88;100.00;99534.81;6269751;22;20011;-86
2023/03/24 03:09:14;;;;;;;8.15;6.93;;;;;;;9.93;100.00;99548.63;6270736;22;20007;-85
2023/03/24 03:11:44;;;;;;;8.05;6.85;;;;;;;9.93;100.00;99545.97;6269925;22;20777;-85
2023/03/24 03:14:17;;;;;;;9.10;7.07;;;;;;;10.02;100.00;99560.44;6283241;22;20004;-84
2023/03/24 03:17:14;;;;;;;8.00;6.90;;;;;;;10.25;100.00;99615.59;6267937;22;20011;-83
2023/03/24 03:19:44;;;;;;;6.90;5.82;;;;;;;9.81;100.00;99557.44;6296278;22;20118;-84
2023/03/24 03:22:17;;;;;;;6.32;5.72;;;;;;;9.91;100.00;99580.66;6285768;22;20014;-85
2023/03/24 03:24:49;;;;;;;;;;;;;;;10.19;100.00;99646.06;6273900;22;20000;-86
2023/03/24 03:27:45;;;;;;;7.18;5.90;;;;;;;9.90;100.00;99592.22;6275480;22;20317;-86
2023/03/24 03:30:36;;;;;;;6.72;5.65;;;;;;;9.72;100.00;99598.78;6249335;22;20025;-84
2023/03/24 03:33:10;;;;;;;5.35;4.85;;;;;;;9.42;100.00;99581.28;6284466;22;20058;-85
2023/03/24 03:35:47;;;;;;;4.50;3.75;;;;;;;9.67;100.00;99662.84;6298274;22;20015;-86
2023/03/24 03:38:24;;;;;;;4.78;3.35;;;;;;;9.37;100.00;99663.06;6298113;22;19987;-85
2023/03/24 03:40:58;;;;;;;4.38;2.80;;;;;;;9.13;100.00;99644.25;6295666;22;20022;-86
2023/03/24 03:43:25;;;;;;;3.10;2.80;;;;;;;8.97;100.00;99654.97;6274035;22;20098;-86
2023/03/24 03:45:51;;;;;;;3.72;2.47;;;;;;;8.90;100.00;99682.88;6273483;22;20004;-85
2023/03/24 03:48:17;;;;;;;5.65;2.15;;;;;;;8.82;100.00;99682.47;6276142;22;20008;-86
2023/03/24 03:50:43;;;;;;;3.95;2.25;;;;;;;8.70;100.00;99685.91;6273750;22;20090;-84
2023/03/24 03:53:12;;;;;;;4.63;2.20;;;;;;;8.85;100.00;99729.19;6273284;22;20054;-85
2023/03/24 03:55:37;;;;;;;6.38;2.10;;;;;;;8.53;100.00;99675.44;6272907;22;20062;-86
2023/03/24 03:58:03;;;;;;;6.80;2.25;;;;;;;8.75;100.00;99718.28;6246175;22;20014;-85
2023/03/24 04:00:29;;;;;;;6.07;2.75;;;;;;;8.41;100.00;99674.41;6271930;22;20031;-87
2023/03/24 04:03:13;;;;;;;3.85;2.33;;;;;;;8.83;100.00;99750.53;6271087;22;20031;-86
2023/03/24 04:06:30;;;;;;;3.30;1.88;;;;;;;8.64;100.00;99721.59;6269669;22;20069;-87
2023/03/24 04:09:13;;;;;;;4.50;2.28;;;;;;;8.85;100.00;99750.41;6218654;22;20003;-86
2023/03/24 04:12:03;;;;;;;5.60;2.70;;;;;;;8.84;100.00;99765.47;6269547;22;20345;-86
2023/03/24 04:14:59;;;;;;;5.25;2.67;;;;;;;8.76;100.00;99778.34;6269033;22;20046;-85
2023/03/24 04:17:40;;;;;;;6.93;3.67;;;;;;;8.56;100.00;99768.09;6269233;22;20004;-85
2023/03/24 04:20:23;;;;;;;7.60;4.13;;;;;;;8.42;100.00;99748.56;6243971;22;20429;-84
2023/03/24 04:23:13;;;;;;;9.13;4.37;;;;;;;8.53;100.00;99768.25;6272874;22;20007;-85
2023/03/24 04:25:49;;;;;;;7.55;4.30;;;;;;;8.70;100.00;99808.78;6270893;22;20576;-86
2023/03/24 04:28:29;;;;;;;7.40;4.50;;;;;;;8.69;100.00;99803.53;6269829;22;20098;-86
2023/03/24 04:31:41;;;;;;;8.63;4.90;;;;;;;8.33;100.00;99758.81;6269472;22;20429;-87
2023/03/24 04:34:19;;;;;;;8.45;4.85;;;;;;;8.18;100.00;99729.59;6133511;23;20010;-86
2023/03/24 04:36:49;;;;;;;7.28;4.40;;;;;;;8.35;100.00;99751.63;6144131;23;20054;-87
2023/03/24 04:39:24;;;;;;;9.15;4.78;;;;;;;8.56;100.00;99802.56;6144875;23;20112;-86
2023/03/24 04:41:51;;;;;;;7.85;4.10;;;;;;;8.40;100.00;99784.03;6144643;23;20321;-86
2023/03/24 04:44:20;;;;;;;8.20;4.07;;;;;;;8.35;100.00;99771.03;6142939;23;20013;-86
2023/03/24 04:46:46;;;;;;;10.40;4.20;;;;;;;8.33;100.00;99782.69;6143689;23;20439;-86
2023/03/24 04:49:11;;;;;;;6.30;3.60;;;;;;;8.12;100.00;99761.78;6119648;23;20010;-86
2023/03/24 04:51:37;;;;;;;7.28;3.42;;;;;;;8.27;100.00;99810.38;6144732;23;20012;-85
2023/03/24 04:54:03;;;;;;;9.50;3.60;;;;;;;8.01;100.00;99771.28;6120400;23;20606;-85
2023/03/24 04:56:33;;;;;;;10.55;3.65;;;;;;;8.02;100.00;99779.13;6142788;23;20416;-86
2023/03/24 04:58:58;;;;;;;8.55;3.50;;;;;;;8.01;100.00;99785.38;6143825;23;20068;-86
2023/03/24 05:01:30;;;;;;;9.43;3.30;;;;;;;8.00;100.00;99783.69;6144147;23;20013;-85
2023/03/24 05:03:57;;;;;;;7.55;3.08;;;;;;;8.45;100.00;99850.94;6118708;23;20020;-86
2023/03/24 05:06:23;;;;;;;12.88;3.58;;;;;;;8.10;100.00;99799.91;6143205;23;20108;-86
2023/03/24 05:08:51;;;;;;;8.20;2.97;;;;;;;8.22;100.00;99817.75;6146315;23;20057;-85
2023/03/24 05:11:16;;;;;;;7.55;3.13;;;;;;;8.32;100.00;99844.59;6212093;23;20082;-86
2023/03/24 05:13:43;;;;;;;9.43;3.15;;;;;;;8.36;100.00;99856.72;6234436;23;20043;-86
2023/03/24 05:16:08;;;;;;;6.80;3.15;;;;;;;8.13;100.00;99820.94;6233777;23;20436;-86
2023/03/24 05:18:34;;;;;;;6.82;2.90;;;;;;;7.97;100.00;99799.75;6234067;23;20016;-86
2023/03/24 05:20:59;;;;;;;7.00;3.00;;;;;;;8.05;100.00;99836.41;6235180;23;20445;-86
2023/03/24 05:23:25;;;;;;;12.35;3.58;;;;;;;8.07;100.00;99843.34;6234028;23;20105;-86
2023/03/24 05:25:50;;;;;;;9.60;3.33;;;;;;;7.98;100.00;99839.44;6232477;23;20429;-86
2023/03/24 05:28:16;;;;;;;7.72;3.28;;;;;;;8.15;100.00;99877.34;6234534;23;20087;-86
2023/03/24 05:30:41;;;;;;;9.60;3.03;;;;;;;8.11;100.00;99879.34;6234745;23;20015;-85
2023/03/24 05:33:07;;;;;;;6.55;2.95;;;;;;;7.81;100.00;99834.19;6234458;23;20042;-87
2023/03/24 05:35:32;;;;;;;9.70;3.30;;;;;;;7.67;100.00;99821.72;6234222;23;20000;-86
2023/03/24 05:37:57;;;;;;;8.63;3.17;;;;;;;7.83;100.00;99855.31;6234004;23;20462;-85
2023/03/24 05:40:23;;;;;;;8.02;3.83;;;;;;;7.66;100.00;99822.66;6208809;23;20000;-86
2023/03/24 05:42:49;;;;;;;7.43;3.20;;;;;;;7.68;100.00;99833.16;6277181;22;20019;-84
2023/03/24 05:45:15;;;;;;;9.90;3.00;;;;;;;7.98;100.00;99897.72;6261633;22;20011;-86
2023/03/24 05:47:41;;;;;;;9.35;3.17;;;;;;;7.60;100.00;99835.38;6262746;22;20004;-86
2023/03/24 05:50:06;;;;;;;11.38;3.28;;;;;;;7.74;100.00;99859.34;6264438;22;20024;-86
2023/03/24 05:52:33;;;;;;;10.52;2.72;;;;;;;7.82;100.00;99882.75;6265863;22;20000;-86
2023/03/24 05:54:58;;;;;;;10.43;3.00;;;;;;;7.74;100.00;99848.72;6247664;22;20000;-83
2023/03/24 05:57:23;;;;;;;11.65;3.22;;;;;;;7.93;100.00;99885.66;6240900;23;20027;-85
2023/03/24 05:59:49;;;;;;;9.60;3.10;;;;;;;7.94;100.00;99863.50;6241283;22;20479;-84
2023/03/24 06:02:14;;;;;;;9.25;3.25;;;;;;;7.80;100.00;99856.31;6241153;22;20034;-84
2023/03/24 06:04:44;;;;;;;8.98;3.25;;;;;;;7.86;100.00;99858.66;6242359;23;20136;-86
2023/03/24 06:07:10;;;;;;;10.07;3.10;;;;;;;7.86;100.00;99863.06;6244964;22;20015;-84
2023/03/24 06:09:35;;;;;;;11.30;3.40;;;;;;;8.08;100.00;99902.50;6246639;22;19996;-84
2023/03/24 06:12:02;;;;;;;8.70;3.00;;;;;;;7.95;100.00;99871.38;6250385;22;19985;-85
2023/03/24 06:14:28;;;;;;;12.88;4.10;;;;;;;8.29;100.00;99924.31;6267068;22;19996;-86
2023/03/24 06:16:58;;;;;;;11.50;4.40;;;;;;;8.26;100.00;99921.81;6265930;22;20012;-85
2023/03/24 06:19:24;;;;;;;10.68;3.75;;;;;;;8.15;100.00;99903.84;6267145;22;20015;-84
2023/03/24 06:21:50;;;;;;;11.48;3.63;;;;;;;8.13;100.00;99900.44;6252453;22;20008;-85
2023/03/24 06:24:16;;;;;;;10.23;3.17;;;;;;;8.17;100.00;99913.44;6247731;22;20007;-86
2023/03/24 06:26:43;;;;;;;14.55;3.83;;;;;;;7.95;100.00;99873.19;6249380;22;20003;-85
2023/03/24 06:29:09;;;;;;;12.85;4.07;;;;;;;8.22;100.00;99916.69;6247931;22;20019;-85
2023/03/24 06:31:36;;;;;;;13.30;3.78;;;;;;;8.42;100.00;99944.78;6247050;22;20055;-85
2023/03/24 06:34:02;;;;;;;12.25;3.85;;;;;;;8.30;100.00;99905.66;6242938;22;20007;-84
2023/03/24 06:36:28;;;;;;;11.23;3.53;;;;;;;8.59;100.00;99935.88;6240528;22;20070;-85
2023/03/24 06:38:53;;;;;;;11.10;4.07;;;;;;;8.67;100.00;99923.00;6241282;22;20386;-85
2023/03/24 06:41:19;;;;;;;11.25;3.60;;;;;;;8.86;100.00;99938.75;6237300;23;20509;-86
2023/03/24 06:43:44;;;;;;;13.13;3.70;;;;;;;8.77;100.00;99904.75;6213707;23;20039;-84
2023/03/24 06:46:10;;;;;;;13.02;3.97;;;;;;;8.94;100.00;99919.69;6239843;23;20018;-85
2023/03/24 06:48:35;;;;;;;11.60;3.63;;;;;;;9.15;100.00;99966.19;6239859;23;20011;-86
2023/03/24 06:51:01;;;;;;;9.85;3.53;;;;;;;9.05;100.00;99958.88;6235980;23;20035;-85
2023/03/24 06:53:27;;;;;;;11.02;3.53;;;;;;;8.83;100.00;99915.03;6237387;23;20026;-85
2023/03/24 06:55:52;;;;;;;9.77;3.83;;;;;;;8.95;100.00;99895.72;6238525;23;20350;-86
2023/03/24 06:58:17;;;;;;;11.48;3.20;;;;;;;9.04;99.58;99882.88;6238910;23;20004;-86
2023/03/24 07:00:46;;;;;;;14.10;3.42;;;;;;;9.25;97.90;99897.50;6239828;23;20414;-86
2023/03/24 07:03:14;;;;;;;12.60;2.97;;;;;;;9.63;97.23;99923.53;6239731;23;20531;-86
2023/03/24 07:05:40;;;;;;;9.18;2.85;;;;;;;9.87;96.08;99935.28;6238439;23;20008;-85
2023/03/24 07:08:06;;;;;;;13.45;3.65;;;;;;;9.94;95.97;99922.47;6239086;23;20372;-85
2023/03/24 07:10:32;;;;;;;14.07;3.65;;;;;;;10.09;94.55;99920.66;6237699;23;20062;-85
2023/03/24 07:12:58;;;;;;;9.82;3.08;;;;;;;10.29;93.69;99949.53;6238976;23;20430;-85
2023/03/24 07:15:26;;;;;;;8.77;2.72;;;;;;;10.20;93.38;99918.16;6238646;23;20062;-87
2023/03/24 07:17:52;;;;;;;10.55;3.10;;;;;;;10.53;92.38;99948.88;6239376;23;20000;-85
2023/03/24 07:20:19;;;;;;;9.73;3.03;;;;;;;10.36;92.18;99921.56;6239794;23;20416;-85
2023/03/24 07:22:44;;;;;;;12.05;3.53;;;;;;;10.79;90.91;99979.13;6239070;23;20036;-85
2023/03/24 07:25:13;;;;;;;9.60;2.60;;;;;;;10.48;90.20;99936.72;6238610;23;20338;-84
2023/03/24 07:27:38;;;;;;;12.70;3.38;;;;;;;10.89;90.37;99977.56;6238169;23;20004;-85
2023/03/24 07:30:04;;;;;;;11.02;3.15;;;;;;;10.73;88.86;99951.09;6240126;23;20019;-84
2023/03/24 07:32:33;;;;;;;12.10;2.90;;;;;;;10.84;88.94;99975.22;6238744;23;20676;-85
2023/03/24 07:34:58;;;;;;;8.43;2.60;;;;;;;10.70;88.81;99938.84;6238906;23;20060;-86
2023/03/24 07:37:26;;;;;;;9.95;2.95;;;;;;;10.46;89.57;99943.97;6237661;23;20087;-85
2023/03/24 07:39:52;;;;;;;10.68;3.20;;;;;;;10.49;88.99;99929.59;6239226;23;20011;-85
2023/03/24 07:42:17;;;;;;;12.27;3.17;;;;;;;10.77;89.49;99923.31;6257828;22;20015;-85
2023/03/24 07:44:43;;;;;;;9.77;2.63;;;;;;;11.10;87.14;99932.69;6270298;22;20007;-86
2023/03/24 07:47:08;;;;;;;12.18;3.38;;;;;;;11.60;86.63;99957.69;6267925;22;20420;-85
2023/03/24 07:49:34;;;;;;;16.20;4.28;;;;;;;12.15;85.38;99968.00;6267948;22;20386;-86
2023/03/24 07:52:05;;;;;;;15.40;3.40;;;;;;;12.43;82.35;99974.88;6268523;22;20007;-87
2023/03/24 07:54:31;;;;;;;12.02;2.90;;;;;;;12.33;80.35;99946.31;6269766;22;20004;-86
2023/03/24 07:56:56;;;;;;;11.93;3.22;;;;;;;12.76;79.77;99929.81;6269004;22;20008;-87
2023/03/24 07:59:22;;;;;;;12.48;3.92;;;;;;;13.37;78.54;99960.78;6243951;22;20337;-85
2023/03/24 08:01:48;;;;;;;13.98;3.70;;;;;;;13.05;76.32;99951.69;6269606;22;20433;-84
2023/03/24 08:04:14;;;;;;;10.30;2.85;;;;;;;13.11;75.38;99988.59;6269901;22;20008;-83
2023/03/24 08:06:42;;;;;;;12.20;3.40;;;;;;;13.24;77.80;100021.50;6265784;22;20071;-84
2023/03/24 08:09:08;;;;;;;12.23;3.38;;;;;;;13.03;78.00;100025.72;6259100;22;20004;-84
2023/03/24 08:11:34;;;;;;;12.32;3.33;;;;;;;12.91;77.46;100030.16;6263154;22;20015;-84
2023/03/24 08:13:59;;;;;;;9.75;3.03;;;;;;;12.68;77.60;100042.53;6241074;22;20421;-84
2023/03/24 08:16:25;;;;;;;9.20;2.92;;;;;;;12.20;79.93;100045.03;6270882;22;20010;-85
2023/03/24 08:18:51;;;;;;;13.13;3.20;;;;;;;12.31;81.79;100028.28;6291602;22;19991;-83
2023/03/24 08:21:16;;;;;;;11.68;2.95;;;;;;;12.98;77.37;100043.91;6292744;22;20080;-84
2023/03/24 08:23:42;;;;;;;8.63;2.90;;;;;;;13.31;76.25;100045.94;6289096;22;20003;-83
2023/03/24 08:26:09;;;;;;;12.45;3.10;;;;;;;13.55;75.15;100046.78;6271859;22;20045;-84
2023/03/24 08:28:36;;;;;;;8.63;2.95;;;;;;;13.90;72.22;100036.03;6272335;22;20114;-85
2023/03/24 08:31:01;;;;;;;9.68;3.13;;;;;;;13.76;72.61;100038.94;6270588;22;20007;-84
2023/03/24 08:33:26;;;;;;;14.88;3.40;;;;;;;14.08;70.82;100059.66;6244056;22;20057;-84
2023/03/24 08:35:56;;;;;;;11.60;2.80;;;;;;;14.24;69.38;100059.31;6271052;22;20022;-84
2023/03/24 08:38:29;;;;;;;9.45;2.92;;;;;;;14.61;68.70;100049.25;6270790;22;20004;-84
2023/03/24 08:40:55;;;;;;;11.40;2.95;;;;;;;15.06;67.43;100057.22;6272514;22;20011;-84
2023/03/24 08:43:22;;;;;;;11.70;2.92;;;;;;;15.32;66.25;100052.38;6274644;22;20015;-84
2023/03/24 08:45:47;;;;;;;8.45;2.70;;;;;;;15.27;64.05;100031.31;6272648;22;20129;-85
2023/03/24 08:48:12;;;;;;;9.00;2.65;;;;;;;16.02;61.61;100038.38;6271488;22;20414;-86
2023/03/24 08:50:40;;;;;;;8.80;2.80;;;;;;;16.63;59.28;100042.88;6287560;22;20010;-81
2023/03/24 08:53:07;;;;;;;8.75;2.75;;;;;;;16.74;59.13;100044.66;6293437;22;20022;-85
2023/03/24 08:55:32;;;;;;;8.68;2.65;;;;;;;16.87;57.52;100047.94;6291963;22;20019;-84
2023/03/24 08:57:58;;;;;;;10.45;2.78;;;;;;;17.37;57.59;100056.78;6266778;22;20004;-83
2023/03/24 09:00:24;;;;;;;8.60;2.40;;;;;;;17.78;55.10;100049.44;6283475;22;20728;-84
2023/03/24 09:02:52;;;;;;;8.70;2.42;;;;;;;16.84;56.74;100054.44;6270674;22;20082;-82
2023/03/24 09:05:19;;;;;;;9.73;2.58;;;;;;;15.54;59.66;100059.47;6269810;22;20371;-85
2023/03/24 09:07:45;;;;;;;10.27;2.70;;;;;;;14.74;63.74;100078.56;6273216;22;20015;-83
2023/03/24 09:10:11;;;;;;;9.50;2.80;;;;;;;14.03;65.49;100080.56;6269564;22;20003;-83
2023/03/24 09:12:38;;;;;;;11.93;3.58;;;;;;;13.51;68.34;100063.16;6271795;22;20541;-82
2023/03/24 09:15:07;;;;;;;11.27;2.88;;;;;;;13.62;68.60;100068.53;6244055;22;20489;-82
2023/03/24 09:17:33;;;;;;;10.23;3.10;;;;;;;14.76;64.82;100073.97;6271643;22;20008;-82
2023/03/24 09:19:59;;;;;;;7.78;2.20;;;;;;;15.77;62.26;100060.25;6272793;22;20022;-83
2023/03/24 09:22:27;;;;;;;7.07;2.42;;;;;;;15.68;59.15;100072.63;6270566;22;20023;-83
2023/03/24 09:24:52;;;;;;;11.55;2.70;;;;;;;14.73;62.07;100071.53;6271186;22;20012;-83
2023/03/24 09:27:17;;;;;;;9.43;2.85;;;;;;;14.15;64.53;100082.28;6272660;22;20041;-80
2023/03/24 09:29:43;;;;;;;10.32;2.95;;;;;;;13.54;66.35;100084.31;6244528;22;20027;-83
2023/03/24 09:32:09;;;;;;;12.43;3.10;;;;;;;13.13;69.67;100091.75;6272827;22;20425;-83
2023/03/24 09:34:37;;;;;;;10.48;2.67;;;;;;;12.88;70.03;100097.16;6271892;22;20000;-83
2023/03/24 09:37:06;;;;;;;10.70;2.80;;;;;;;12.65;72.21;100088.97;6272841;22;20011;-82
2023/03/24 09:39:34;;;;;;;10.95;2.67;;;;;;;12.61;72.20;100086.63;6273266;22;20079;-83
2023/03/24 09:42:00;;;;;;;8.55;2.63;;;;;;;12.59;73.74;100096.59;6271428;22;20471;-83
2023/03/24 09:44:44;;;;;;;11.48;3.53;;;;;;;12.96;72.77;100084.97;6271899;22;20008;-83
2023/03/24 09:47:25;;;;;;;8.95;2.95;;;;;;;13.27;71.28;100092.56;6271521;22;20413;-83
2023/03/24 09:49:51;;;;;;;10.02;2.78;;;;;;;13.13;69.95;100088.22;6271307;22;20003;-83
2023/03/24 09:52:23;;;;;;;7.35;2.40;;;;;;;14.48;66.65;100089.50;6270569;22;20011;-83
2023/03/24 09:54:57;;;;;;;7.75;2.67;;;;;;;15.32;63.31;100098.78;6268137;22;20006;-82
2023/03/24 09:57:28;;;;;;;7.95;2.22;;;;;;;14.75;61.74;100102.53;6267750;22;20068;-83
2023/03/24 09:59:54;;;;;;;9.68;2.67;;;;;;;14.20;61.98;100091.66;6270011;22;20014;-82
2023/03/24 10:02:21;;;;;;;7.13;2.13;;;;;;;13.94;63.81;100116.91;6269350;22;20018;-83
2023/03/24 10:04:48;;;;;;;9.13;2.60;;;;;;;13.44;65.45;100106.38;6269055;22;20000;-82
2023/03/24 10:07:37;;;;;;;7.00;2.40;;;;;;;13.08;68.21;100117.06;6268596;22;20801;-82
2023/03/24 10:10:17;;;;;;;6.88;2.72;;;;;;;13.17;69.21;100108.41;6269670;22;20006;-82
2023/03/24 10:12:47;;;;;;;8.70;2.65;;;;;;;13.08;69.74;100115.25;6269506;22;20091;-83
2023/03/24 10:15:19;;;;;;;8.20;2.60;;;;;;;12.83;68.06;100105.50;6242183;22;20333;-83
2023/03/24 10:17:57;;;;;;;7.63;2.90;;;;;;;12.79;70.18;100119.16;6268688;22;20387;-83
2023/03/24 10:20:40;;;;;;;11.35;3.10;;;;;;;12.95;70.39;100103.75;6268619;22;20000;-83
2023/03/24 10:23:30;;;;;;;8.77;3.28;;;;;;;13.06;68.94;100119.88;6270712;22;20413;-83
2023/03/24 10:26:35;;;;;;;8.85;2.83;;;;;;;12.95;69.88;100117.94;6269851;22;20046;-83
2023/03/24 10:29:28;;;;;;;9.88;2.90;;;;;;;12.86;69.33;100126.63;6271386;22;20091;-83
2023/03/24 10:32:01;;;;;;;6.15;2.55;;;;;;;12.75;69.22;100123.03;6271361;22;20134;-83
2023/03/24 10:34:31;;;;;;;8.73;2.65;;;;;;;12.98;68.34;100121.38;6269349;22;20011;-83
2023/03/24 10:36:59;;;;;;;8.35;2.40;;;;;;;13.78;65.29;100101.16;6271705;22;20010;-83
2023/03/24 10:39:25;;;;;;;8.05;2.75;;;;;;;14.17;63.83;100105.31;6270915;22;20019;-83
2023/03/24 10:41:53;;;;;;;8.82;2.67;;;;;;;14.06;65.03;100123.16;6271065;22;20015;-82
2023/03/24 10:44:20;;;;;;;7.68;2.33;;;;;;;13.76;63.42;100107.63;6270401;22;20325;-83
2023/03/24 10:46:49;;;;;;;10.48;3.30;;;;;;;13.43;66.74;100126.06;6270969;22;20008;-83
2023/03/24 10:49:18;;;;;;;8.55;2.65;;;;;;;13.07;66.86;100129.56;6276312;22;20008;-81
2023/03/24 10:51:55;;;;;;;5.97;2.30;;;;;;;12.76;69.35;100117.59;6292395;22;20019;-83
2023/03/24 10:54:24;;;;;;;7.60;2.78;;;;;;;12.65;69.97;100125.50;6291868;22;20004;-81
2023/03/24 10:57:04;;;;;;;7.40;2.50;;;;;;;12.74;70.37;100115.97;6293115;22;20003;-81
2023/03/24 10:59:35;;;;;;;7.80;2.60;;;;;;;13.10;69.47;100120.50;6271082;22;20042;-82
2023/03/24 11:02:10;;;;;;;7.57;2.72;;;;;;;13.17;68.23;100119.09;6269488;22;20008;-82
2023/03/24 11:04:40;;;;;;;9.15;2.92;;;;;;;13.15;68.74;100107.66;6270867;22;20000;-82
2023/03/24 11:07:19;;;;;;;8.77;2.50;;;;;;;13.92;67.34;100117.03;6273438;22;20034;-82
2023/03/24 11:10:09;;;;;;;7.47;2.60;;;;;;;15.88;61.50;100103.09;6273718;22;20122;-83
2023/03/24 11:12:38;;;;;;;7.88;2.58;;;;;;;15.92;57.88;100112.59;6274016;22;20034;-83
2023/03/24 11:15:20;;;;;;;8.38;2.78;;;;;;;15.06;60.29;100118.84;6270066;22;20000;-82
2023/03/24 11:17:51;;;;;;;8.27;2.40;;;;;;;17.01;55.96;100104.00;6268289;22;20003;-83
2023/03/24 11:20:19;;;;;;;7.70;2.38;;;;;;;18.88;49.44;100111.66;6268989;22;20010;-84
2023/03/24 11:22:55;;;;;;;10.27;2.40;;;;;;;18.23;49.85;100118.84;6270903;22;20118;-83
2023/03/24 11:25:25;;;;;;;6.05;2.33;;;;;;;17.74;50.89;100123.41;6270633;22;19999;-83
2023/03/24 11:27:56;;;;;;;7.07;2.10;;;;;;;17.20;50.99;100119.34;6269749;22;20023;-82
2023/03/24 11:30:22;;;;;;;7.95;2.35;;;;;;;16.29;52.88;100104.94;6270613;22;20007;-83
2023/03/24 11:32:48;;;;;;;7.57;2.20;;;;;;;15.55;55.20;100112.13;6282022;22;20059;-81
2023/03/24 11:35:17;;;;;;;7.78;2.30;;;;;;;15.04;56.17;100108.25;6290281;22;20026;-82
2023/03/24 11:37:45;;;;;;;9.18;2.35;;;;;;;14.80;57.91;100097.69;6292699;22;20076;-82
2023/03/24 11:40:21;;;;;;;7.13;2.28;;;;;;;14.95;58.57;100099.13;6265263;22;20018;-84